sensor_id;sensor_type;location;lat;lon;timestamp;P1;durP1;ratioP1;P2;durP2;ratioP2
83145;SDS011;73037;51.110;4.706;2024-03-25T00:02:09;9.20;;;3.65;;
83145;SDS011;73037;51.110;4.706;2024-03-25T00:04:34;8.68;;;3.75;;
83145;SDS011;73037;51.110;4.706;2024-03-25T00:07:00;8.85;;;3.72;;
83145;SDS011;73037;51.110;4.706;2024-03-25T00:09:27;10.73;;;3.53;;
83145;SDS011;73037;51.110;4.706;2024-03-25T00:11:52;7.55;;;3.38;;
83145;SDS011;73037;51.110;4.706;2024-03-25T00:14:21;11.35;;;4.03;;
83145;SDS011;73037;51.110;4.706;2024-03-25T00:16:46;7.60;;;3.92;;
83145;SDS011;73037;51.110;4.706;2024-03-25T00:19:12;9.77;;;4.13;;
83145;SDS011;73037;51.110;4.706;2024-03-25T00:21:38;8.25;;;3.95;;
83145;SDS011;73037;51.110;4.706;2024-03-25T00:24:04;7.97;;;3.63;;
83145;SDS011;73037;51.110;4.706;2024-03-25T00:26:30;11.75;;;4.80;;
83145;SDS011;73037;51.110;4.706;2024-03-25T00:28:55;11.30;;;4.38;;
83145;SDS011;73037;51.110;4.706;2024-03-25T00:31:21;8.77;;;3.80;;
83145;SDS011;73037;51.110;4.706;2024-03-25T00:33:47;13.30;;;4.28;;
83145;SDS011;73037;51.110;4.706;2024-03-25T00:36:12;9.77;;;4.30;;
83145;SDS011;73037;51.110;4.706;2024-03-25T00:38:38;9.90;;;4.13;;
83145;SDS011;73037;51.110;4.706;2024-03-25T00:41:04;9.63;;;4.20;;
83145;SDS011;73037;51.110;4.706;2024-03-25T00:43:29;9.80;;;4.45;;
83145;SDS011;73037;51.110;4.706;2024-03-25T00:45:55;10.35;;;4.20;;
83145;SDS011;73037;51.110;4.706;2024-03-25T00:48:21;8.90;;;4.13;;
83145;SDS011;73037;51.110;4.706;2024-03-25T00:50:50;12.43;;;4.40;;
83145;SDS011;73037;51.110;4.706;2024-03-25T00:53:16;9.45;;;4.32;;
83145;SDS011;73037;51.110;4.706;2024-03-25T00:55:41;9.95;;;4.38;;
83145;SDS011;73037;51.110;4.706;2024-03-25T00:58:07;11.25;;;4.25;;
83145;SDS011;73037;51.110;4.706;2024-03-25T01:00:33;8.98;;;4.43;;
83145;SDS011;73037;51.110;4.706;2024-03-25T01:02:58;9.70;;;4.80;;
83145;SDS011;73037;51.110;4.706;2024-03-25T01:05:24;10.43;;;5.00;;
83145;SDS011;73037;51.110;4.706;2024-03-25T01:07:49;7.07;;;3.95;;
83145;SDS011;73037;51.110;4.706;2024-03-25T01:10:15;9.75;;;4.22;;
83145;SDS011;73037;51.110;4.706;2024-03-25T01:12:41;6.72;;;3.80;;
83145;SDS011;73037;51.110;4.706;2024-03-25T01:15:07;8.32;;;4.72;;
83145;SDS011;73037;51.110;4.706;2024-03-25T01:17:35;10.00;;;4.55;;
83145;SDS011;73037;51.110;4.706;2024-03-25T01:20:01;12.93;;;4.72;;
83145;SDS011;73037;51.110;4.706;2024-03-25T01:22:28;8.15;;;4.63;;
83145;SDS011;73037;51.110;4.706;2024-03-25T01:24:54;12.88;;;4.97;;
83145;SDS011;73037;51.110;4.706;2024-03-25T01:27:19;8.05;;;3.95;;
83145;SDS011;73037;51.110;4.706;2024-03-25T01:29:45;11.77;;;4.63;;
83145;SDS011;73037;51.110;4.706;2024-03-25T01:32:11;8.23;;;4.35;;
83145;SDS011;73037;51.110;4.706;2024-03-25T01:34:36;9.27;;;4.78;;
83145;SDS011;73037;51.110;4.706;2024-03-25T01:37:02;8.02;;;4.13;;
83145;SDS011;73037;51.110;4.706;2024-03-25T01:39:28;8.35;;;4.13;;
83145;SDS011;73037;51.110;4.706;2024-03-25T01:41:54;10.27;;;4.55;;
83145;SDS011;73037;51.110;4.706;2024-03-25T01:44:20;8.07;;;4.75;;
83145;SDS011;73037;51.110;4.706;2024-03-25T01:46:45;8.02;;;4.18;;
83145;SDS011;73037;51.110;4.706;2024-03-25T01:49:11;9.77;;;4.45;;
83145;SDS011;73037;51.110;4.706;2024-03-25T01:51:37;8.15;;;4.25;;
83145;SDS011;73037;51.110;4.706;2024-03-25T01:54:05;9.35;;;4.40;;
83145;SDS011;73037;51.110;4.706;2024-03-25T01:56:32;8.05;;;3.90;;
83145;SDS011;73037;51.110;4.706;2024-03-25T01:58:59;8.98;;;4.47;;
83145;SDS011;73037;51.110;4.706;2024-03-25T02:01:26;9.02;;;4.95;;
83145;SDS011;73037;51.110;4.706;2024-03-25T02:03:53;8.10;;;4.05;;
83145;SDS011;73037;51.110;4.706;2024-03-25T02:08:46;11.45;;;4.03;;
83145;SDS011;73037;51.110;4.706;2024-03-25T02:11:14;8.20;;;4.30;;
83145;SDS011;73037;51.110;4.706;2024-03-25T02:13:41;7.97;;;4.45;;
83145;SDS011;73037;51.110;4.706;2024-03-25T02:16:07;9.73;;;5.05;;
83145;SDS011;73037;51.110;4.706;2024-03-25T02:18:32;9.50;;;4.90;;
83145;SDS011;73037;51.110;4.706;2024-03-25T02:20:59;7.30;;;4.40;;
83145;SDS011;73037;51.110;4.706;2024-03-25T02:23:28;9.45;;;4.40;;
83145;SDS011;73037;51.110;4.706;2024-03-25T02:25:54;8.38;;;4.53;;
83145;SDS011;73037;51.110;4.706;2024-03-25T02:28:21;6.65;;;3.95;;
83145;SDS011;73037;51.110;4.706;2024-03-25T02:30:46;9.35;;;4.50;;
83145;SDS011;73037;51.110;4.706;2024-03-25T02:33:12;8.25;;;4.50;;
83145;SDS011;73037;51.110;4.706;2024-03-25T02:35:39;10.93;;;4.20;;
83145;SDS011;73037;51.110;4.706;2024-03-25T02:38:06;7.10;;;4.43;;
83145;SDS011;73037;51.110;4.706;2024-03-25T02:40:34;7.03;;;4.40;;
83145;SDS011;73037;51.110;4.706;2024-03-25T02:43:00;7.80;;;4.45;;
83145;SDS011;73037;51.110;4.706;2024-03-25T02:45:27;7.90;;;4.57;;
83145;SDS011;73037;51.110;4.706;2024-03-25T02:47:52;7.28;;;4.53;;
83145;SDS011;73037;51.110;4.706;2024-03-25T02:50:18;9.40;;;4.65;;
83145;SDS011;73037;51.110;4.706;2024-03-25T02:52:44;7.95;;;4.53;;
83145;SDS011;73037;51.110;4.706;2024-03-25T02:55:10;10.75;;;4.78;;
83145;SDS011;73037;51.110;4.706;2024-03-25T02:57:35;8.98;;;4.32;;
83145;SDS011;73037;51.110;4.706;2024-03-25T03:00:01;8.73;;;4.40;;
83145;SDS011;73037;51.110;4.706;2024-03-25T03:02:27;13.60;;;5.32;;
83145;SDS011;73037;51.110;4.706;2024-03-25T03:04:52;9.13;;;4.63;;
83145;SDS011;73037;51.110;4.706;2024-03-25T03:07:18;9.32;;;4.60;;
83145;SDS011;73037;51.110;4.706;2024-03-25T03:09:44;8.18;;;4.78;;
83145;SDS011;73037;51.110;4.706;2024-03-25T03:12:09;8.07;;;4.45;;
83145;SDS011;73037;51.110;4.706;2024-03-25T03:14:35;10.23;;;4.75;;
83145;SDS011;73037;51.110;4.706;2024-03-25T03:17:00;7.65;;;4.28;;
83145;SDS011;73037;51.110;4.706;2024-03-25T03:19:30;10.88;;;4.85;;
83145;SDS011;73037;51.110;4.706;2024-03-25T03:21:56;8.63;;;4.40;;
83145;SDS011;73037;51.110;4.706;2024-03-25T03:24:22;10.77;;;4.50;;
83145;SDS011;73037;51.110;4.706;2024-03-25T03:26:47;12.05;;;4.95;;
83145;SDS011;73037;51.110;4.706;2024-03-25T03:29:13;10.20;;;4.53;;
83145;SDS011;73037;51.110;4.706;2024-03-25T03:31:39;9.77;;;4.63;;
83145;SDS011;73037;51.110;4.706;2024-03-25T03:34:05;12.13;;;5.20;;
83145;SDS011;73037;51.110;4.706;2024-03-25T03:36:31;9.80;;;4.57;;
83145;SDS011;73037;51.110;4.706;2024-03-25T03:38:56;12.23;;;4.95;;
83145;SDS011;73037;51.110;4.706;2024-03-25T03:41:22;8.05;;;4.07;;
83145;SDS011;73037;51.110;4.706;2024-03-25T03:43:48;10.80;;;4.20;;
83145;SDS011;73037;51.110;4.706;2024-03-25T03:46:13;7.38;;;3.90;;
83145;SDS011;73037;51.110;4.706;2024-03-25T03:48:39;7.55;;;4.25;;
83145;SDS011;73037;51.110;4.706;2024-03-25T03:51:05;8.68;;;4.10;;
83145;SDS011;73037;51.110;4.706;2024-03-25T03:53:31;8.35;;;4.35;;
83145;SDS011;73037;51.110;4.706;2024-03-25T03:55:59;10.50;;;4.00;;
83145;SDS011;73037;51.110;4.706;2024-03-25T03:58:29;7.25;;;3.67;;
83145;SDS011;73037;51.110;4.706;2024-03-25T04:00:54;7.88;;;4.40;;
83145;SDS011;73037;51.110;4.706;2024-03-25T04:03:20;7.13;;;3.60;;
83145;SDS011;73037;51.110;4.706;2024-03-25T04:05:46;6.63;;;3.80;;
83145;SDS011;73037;51.110;4.706;2024-03-25T04:08:12;7.70;;;4.30;;
83145;SDS011;73037;51.110;4.706;2024-03-25T04:10:38;8.27;;;4.07;;
83145;SDS011;73037;51.110;4.706;2024-03-25T04:13:05;7.85;;;4.15;;
83145;SDS011;73037;51.110;4.706;2024-03-25T04:15:34;19.38;;;5.07;;
83145;SDS011;73037;51.110;4.706;2024-03-25T04:18:00;7.88;;;3.83;;
83145;SDS011;73037;51.110;4.706;2024-03-25T04:20:27;9.20;;;3.80;;
83145;SDS011;73037;51.110;4.706;2024-03-25T04:22:53;7.28;;;4.00;;
83145;SDS011;73037;51.110;4.706;2024-03-25T04:25:19;7.32;;;3.80;;
83145;SDS011;73037;51.110;4.706;2024-03-25T04:27:45;9.40;;;4.10;;
83145;SDS011;73037;51.110;4.706;2024-03-25T04:30:11;7.50;;;4.00;;
83145;SDS011;73037;51.110;4.706;2024-03-25T04:32:38;5.78;;;3.50;;
83145;SDS011;73037;51.110;4.706;2024-03-25T04:35:05;9.63;;;4.47;;
83145;SDS011;73037;51.110;4.706;2024-03-25T04:37:34;7.90;;;3.50;;
83145;SDS011;73037;51.110;4.706;2024-03-25T04:40:01;9.10;;;3.92;;
83145;SDS011;73037;51.110;4.706;2024-03-25T04:42:27;9.82;;;4.10;;
83145;SDS011;73037;51.110;4.706;2024-03-25T04:44:53;5.72;;;3.15;;
83145;SDS011;73037;51.110;4.706;2024-03-25T04:47:19;7.35;;;3.22;;
83145;SDS011;73037;51.110;4.706;2024-03-25T04:49:45;7.30;;;3.85;;
83145;SDS011;73037;51.110;4.706;2024-03-25T04:52:14;6.50;;;3.70;;
83145;SDS011;73037;51.110;4.706;2024-03-25T04:54:44;8.02;;;3.63;;
83145;SDS011;73037;51.110;4.706;2024-03-25T04:57:10;8.05;;;3.40;;
83145;SDS011;73037;51.110;4.706;2024-03-25T04:59:35;8.00;;;3.60;;
83145;SDS011;73037;51.110;4.706;2024-03-25T05:02:01;6.25;;;3.55;;
83145;SDS011;73037;51.110;4.706;2024-03-25T05:04:27;8.48;;;4.30;;
83145;SDS011;73037;51.110;4.706;2024-03-25T05:06:53;7.18;;;3.20;;
83145;SDS011;73037;51.110;4.706;2024-03-25T05:09:19;10.90;;;3.65;;
83145;SDS011;73037;51.110;4.706;2024-03-25T05:11:45;7.38;;;4.28;;
83145;SDS011;73037;51.110;4.706;2024-03-25T05:14:10;8.10;;;3.70;;
83145;SDS011;73037;51.110;4.706;2024-03-25T05:16:36;10.20;;;3.85;;
83145;SDS011;73037;51.110;4.706;2024-03-25T05:19:02;9.30;;;4.25;;
83145;SDS011;73037;51.110;4.706;2024-03-25T05:21:29;7.50;;;3.50;;
83145;SDS011;73037;51.110;4.706;2024-03-25T05:23:55;6.93;;;3.40;;
83145;SDS011;73037;51.110;4.706;2024-03-25T05:26:21;7.18;;;3.65;;
83145;SDS011;73037;51.110;4.706;2024-03-25T05:28:51;9.40;;;3.80;;
83145;SDS011;73037;51.110;4.706;2024-03-25T05:31:18;10.52;;;4.38;;
83145;SDS011;73037;51.110;4.706;2024-03-25T05:33:44;7.15;;;3.90;;
83145;SDS011;73037;51.110;4.706;2024-03-25T05:36:09;11.68;;;4.00;;
83145;SDS011;73037;51.110;4.706;2024-03-25T05:38:35;9.75;;;4.60;;
83145;SDS011;73037;51.110;4.706;2024-03-25T05:41:00;10.25;;;4.28;;
83145;SDS011;73037;51.110;4.706;2024-03-25T05:43:26;10.50;;;4.28;;
83145;SDS011;73037;51.110;4.706;2024-03-25T05:45:52;10.38;;;4.45;;
83145;SDS011;73037;51.110;4.706;2024-03-25T05:48:19;9.40;;;4.15;;
83145;SDS011;73037;51.110;4.706;2024-03-25T05:50:45;8.18;;;4.20;;
83145;SDS011;73037;51.110;4.706;2024-03-25T05:53:11;11.88;;;4.88;;
83145;SDS011;73037;51.110;4.706;2024-03-25T05:55:36;9.57;;;4.68;;
83145;SDS011;73037;51.110;4.706;2024-03-25T05:58:02;11.80;;;4.75;;
83145;SDS011;73037;51.110;4.706;2024-03-25T06:00:29;15.18;;;4.97;;
83145;SDS011;73037;51.110;4.706;2024-03-25T06:02:55;10.88;;;4.70;;
83145;SDS011;73037;51.110;4.706;2024-03-25T06:05:21;11.45;;;4.82;;
83145;SDS011;73037;51.110;4.706;2024-03-25T06:07:47;18.00;;;6.85;;
83145;SDS011;73037;51.110;4.706;2024-03-25T06:10:13;18.67;;;6.07;;
83145;SDS011;73037;51.110;4.706;2024-03-25T06:12:38;13.35;;;5.85;;
83145;SDS011;73037;51.110;4.706;2024-03-25T06:15:04;11.52;;;5.50;;
83145;SDS011;73037;51.110;4.706;2024-03-25T06:17:31;16.38;;;6.10;;
83145;SDS011;73037;51.110;4.706;2024-03-25T06:19:57;15.95;;;6.03;;
83145;SDS011;73037;51.110;4.706;2024-03-25T06:22:22;18.75;;;8.48;;
83145;SDS011;73037;51.110;4.706;2024-03-25T06:24:48;32.70;;;12.63;;
83145;SDS011;73037;51.110;4.706;2024-03-25T06:27:15;30.33;;;13.05;;
83145;SDS011;73037;51.110;4.706;2024-03-25T06:29:41;25.48;;;9.52;;
83145;SDS011;73037;51.110;4.706;2024-03-25T06:32:08;17.20;;;7.15;;
83145;SDS011;73037;51.110;4.706;2024-03-25T06:34:52;13.68;;;6.20;;
83145;SDS011;73037;51.110;4.706;2024-03-25T06:37:18;18.25;;;7.45;;
83145;SDS011;73037;51.110;4.706;2024-03-25T06:39:44;15.25;;;6.95;;
83145;SDS011;73037;51.110;4.706;2024-03-25T06:42:09;18.17;;;7.53;;
83145;SDS011;73037;51.110;4.706;2024-03-25T06:44:35;17.23;;;6.88;;
83145;SDS011;73037;51.110;4.706;2024-03-25T06:47:01;15.85;;;6.72;;
83145;SDS011;73037;51.110;4.706;2024-03-25T06:49:27;14.90;;;6.63;;
83145;SDS011;73037;51.110;4.706;2024-03-25T06:51:53;17.77;;;7.35;;
83145;SDS011;73037;51.110;4.706;2024-03-25T06:54:18;19.70;;;7.00;;
83145;SDS011;73037;51.110;4.706;2024-03-25T06:56:44;20.98;;;7.20;;
83145;SDS011;73037;51.110;4.706;2024-03-25T06:59:11;18.05;;;6.85;;
83145;SDS011;73037;51.110;4.706;2024-03-25T07:01:36;18.60;;;7.47;;
83145;SDS011;73037;51.110;4.706;2024-03-25T07:04:02;16.70;;;7.47;;
83145;SDS011;73037;51.110;4.706;2024-03-25T07:06:28;18.77;;;8.60;;
83145;SDS011;73037;51.110;4.706;2024-03-25T07:08:53;22.48;;;8.57;;
83145;SDS011;73037;51.110;4.706;2024-03-25T07:11:20;18.25;;;8.52;;
83145;SDS011;73037;51.110;4.706;2024-03-25T07:13:45;23.10;;;8.68;;
83145;SDS011;73037;51.110;4.706;2024-03-25T07:16:11;22.90;;;8.75;;
83145;SDS011;73037;51.110;4.706;2024-03-25T07:18:36;20.40;;;8.23;;
83145;SDS011;73037;51.110;4.706;2024-03-25T07:21:02;25.27;;;8.82;;
83145;SDS011;73037;51.110;4.706;2024-03-25T07:23:28;23.10;;;8.85;;
83145;SDS011;73037;51.110;4.706;2024-03-25T07:25:53;19.38;;;8.73;;
83145;SDS011;73037;51.110;4.706;2024-03-25T07:28:20;25.48;;;9.13;;
83145;SDS011;73037;51.110;4.706;2024-03-25T07:30:45;23.05;;;8.35;;
83145;SDS011;73037;51.110;4.706;2024-03-25T07:33:12;22.00;;;9.05;;
83145;SDS011;73037;51.110;4.706;2024-03-25T07:35:37;19.33;;;8.27;;
83145;SDS011;73037;51.110;4.706;2024-03-25T07:38:03;24.30;;;8.60;;
83145;SDS011;73037;51.110;4.706;2024-03-25T07:40:29;22.73;;;8.27;;
83145;SDS011;73037;51.110;4.706;2024-03-25T07:42:54;18.52;;;7.95;;
83145;SDS011;73037;51.110;4.706;2024-03-25T07:45:21;21.20;;;7.97;;
83145;SDS011;73037;51.110;4.706;2024-03-25T07:47:47;19.67;;;7.97;;
83145;SDS011;73037;51.110;4.706;2024-03-25T07:50:12;25.27;;;9.27;;
83145;SDS011;73037;51.110;4.706;2024-03-25T07:52:38;19.23;;;7.38;;
83145;SDS011;73037;51.110;4.706;2024-03-25T07:55:07;21.40;;;9.45;;
83145;SDS011;73037;51.110;4.706;2024-03-25T07:57:33;20.27;;;8.15;;
83145;SDS011;73037;51.110;4.706;2024-03-25T07:59:59;22.05;;;11.45;;
83145;SDS011;73037;51.110;4.706;2024-03-25T08:02:25;25.58;;;11.18;;
83145;SDS011;73037;51.110;4.706;2024-03-25T08:04:50;22.00;;;11.65;;
83145;SDS011;73037;51.110;4.706;2024-03-25T08:07:16;28.85;;;16.75;;
83145;SDS011;73037;51.110;4.706;2024-03-25T08:09:42;24.83;;;13.40;;
83145;SDS011;73037;51.110;4.706;2024-03-25T08:12:08;18.65;;;6.68;;
83145;SDS011;73037;51.110;4.706;2024-03-25T08:14:34;22.48;;;10.45;;
83145;SDS011;73037;51.110;4.706;2024-03-25T08:16:59;20.38;;;8.05;;
83145;SDS011;73037;51.110;4.706;2024-03-25T08:19:25;21.75;;;10.85;;
83145;SDS011;73037;51.110;4.706;2024-03-25T08:21:50;17.60;;;8.95;;
83145;SDS011;73037;51.110;4.706;2024-03-25T08:24:16;16.85;;;6.68;;
83145;SDS011;73037;51.110;4.706;2024-03-25T08:26:42;18.35;;;6.93;;
83145;SDS011;73037;51.110;4.706;2024-03-25T08:29:07;20.88;;;9.70;;
83145;SDS011;73037;51.110;4.706;2024-03-25T08:31:33;17.35;;;7.03;;
83145;SDS011;73037;51.110;4.706;2024-03-25T08:33:59;29.52;;;19.23;;
83145;SDS011;73037;51.110;4.706;2024-03-25T08:36:24;16.45;;;5.95;;
83145;SDS011;73037;51.110;4.706;2024-03-25T08:38:50;14.82;;;6.45;;
83145;SDS011;73037;51.110;4.706;2024-03-25T08:41:16;15.55;;;5.85;;
83145;SDS011;73037;51.110;4.706;2024-03-25T08:43:41;14.20;;;6.65;;
83145;SDS011;73037;51.110;4.706;2024-03-25T08:46:07;18.65;;;6.25;;
83145;SDS011;73037;51.110;4.706;2024-03-25T08:48:32;16.63;;;6.40;;
83145;SDS011;73037;51.110;4.706;2024-03-25T08:50:58;12.93;;;5.97;;
83145;SDS011;73037;51.110;4.706;2024-03-25T08:53:24;15.15;;;6.20;;
83145;SDS011;73037;51.110;4.706;2024-03-25T08:55:49;13.07;;;6.00;;
83145;SDS011;73037;51.110;4.706;2024-03-25T08:58:15;14.40;;;6.45;;
83145;SDS011;73037;51.110;4.706;2024-03-25T09:00:41;16.60;;;6.53;;
83145;SDS011;73037;51.110;4.706;2024-03-25T09:03:07;11.55;;;5.82;;
83145;SDS011;73037;51.110;4.706;2024-03-25T09:05:33;14.00;;;5.78;;
83145;SDS011;73037;51.110;4.706;2024-03-25T09:07:59;11.57;;;6.18;;
83145;SDS011;73037;51.110;4.706;2024-03-25T09:10:25;12.35;;;5.93;;
83145;SDS011;73037;51.110;4.706;2024-03-25T09:13:10;12.80;;;6.10;;
83145;SDS011;73037;51.110;4.706;2024-03-25T09:15:36;11.75;;;5.90;;
83145;SDS011;73037;51.110;4.706;2024-03-25T09:18:02;13.55;;;5.70;;
83145;SDS011;73037;51.110;4.706;2024-03-25T09:20:27;13.15;;;5.65;;
83145;SDS011;73037;51.110;4.706;2024-03-25T09:22:53;10.68;;;5.50;;
83145;SDS011;73037;51.110;4.706;2024-03-25T09:25:19;14.45;;;5.97;;
83145;SDS011;73037;51.110;4.706;2024-03-25T09:27:48;8.75;;;5.47;;
83145;SDS011;73037;51.110;4.706;2024-03-25T09:30:14;12.48;;;5.78;;
83145;SDS011;73037;51.110;4.706;2024-03-25T09:35:07;10.02;;;4.85;;
83145;SDS011;73037;51.110;4.706;2024-03-25T09:37:34;10.80;;;4.90;;
83145;SDS011;73037;51.110;4.706;2024-03-25T09:39:59;10.43;;;4.65;;
83145;SDS011;73037;51.110;4.706;2024-03-25T09:42:25;9.45;;;4.95;;
83145;SDS011;73037;51.110;4.706;2024-03-25T09:44:55;10.13;;;5.32;;
83145;SDS011;73037;51.110;4.706;2024-03-25T09:47:21;9.32;;;5.13;;
83145;SDS011;73037;51.110;4.706;2024-03-25T09:49:48;9.10;;;4.28;;
83145;SDS011;73037;51.110;4.706;2024-03-25T09:54:40;7.93;;;4.20;;
83145;SDS011;73037;51.110;4.706;2024-03-25T09:59:33;9.93;;;3.63;;
83145;SDS011;73037;51.110;4.706;2024-03-25T10:01:58;11.15;;;4.32;;
83145;SDS011;73037;51.110;4.706;2024-03-25T10:04:26;9.68;;;3.85;;
83145;SDS011;73037;51.110;4.706;2024-03-25T10:06:51;9.82;;;4.30;;
83145;SDS011;73037;51.110;4.706;2024-03-25T10:09:21;7.43;;;3.63;;
83145;SDS011;73037;51.110;4.706;2024-03-25T10:11:48;8.05;;;3.53;;
83145;SDS011;73037;51.110;4.706;2024-03-25T10:14:17;7.53;;;3.20;;
83145;SDS011;73037;51.110;4.706;2024-03-25T10:16:44;6.15;;;3.40;;
83145;SDS011;73037;51.110;4.706;2024-03-25T10:19:09;6.07;;;3.05;;
83145;SDS011;73037;51.110;4.706;2024-03-25T10:21:35;7.97;;;2.95;;
83145;SDS011;73037;51.110;4.706;2024-03-25T10:24:01;6.32;;;3.70;;
83145;SDS011;73037;51.110;4.706;2024-03-25T10:26:30;9.70;;;4.10;;
83145;SDS011;73037;51.110;4.706;2024-03-25T10:29:07;6.18;;;3.45;;
83145;SDS011;73037;51.110;4.706;2024-03-25T10:31:33;8.13;;;3.50;;
83145;SDS011;73037;51.110;4.706;2024-03-25T10:33:59;5.70;;;3.50;;
83145;SDS011;73037;51.110;4.706;2024-03-25T10:36:26;8.20;;;4.03;;
83145;SDS011;73037;51.110;4.706;2024-03-25T10:38:55;8.05;;;3.30;;
83145;SDS011;73037;51.110;4.706;2024-03-25T10:41:21;12.25;;;3.65;;
83145;SDS011;73037;51.110;4.706;2024-03-25T10:43:48;7.75;;;2.92;;
83145;SDS011;73037;51.110;4.706;2024-03-25T10:46:20;7.40;;;2.97;;
83145;SDS011;73037;51.110;4.706;2024-03-25T10:51:19;7.63;;;3.17;;
83145;SDS011;73037;51.110;4.706;2024-03-25T10:53:47;6.03;;;2.60;;
83145;SDS011;73037;51.110;4.706;2024-03-25T10:56:17;7.40;;;2.67;;
83145;SDS011;73037;51.110;4.706;2024-03-25T10:58:49;4.78;;;2.28;;
83145;SDS011;73037;51.110;4.706;2024-03-25T11:01:18;4.50;;;1.95;;
83145;SDS011;73037;51.110;4.706;2024-03-25T11:03:45;6.57;;;2.58;;
83145;SDS011;73037;51.110;4.706;2024-03-25T11:06:13;6.00;;;2.50;;
83145;SDS011;73037;51.110;4.706;2024-03-25T11:08:39;5.35;;;2.40;;
83145;SDS011;73037;51.110;4.706;2024-03-25T11:15:57;4.00;;;2.00;;
83145;SDS011;73037;51.110;4.706;2024-03-25T11:18:24;6.72;;;2.47;;
83145;SDS011;73037;51.110;4.706;2024-03-25T11:21:03;9.02;;;2.70;;
83145;SDS011;73037;51.110;4.706;2024-03-25T11:23:40;6.05;;;2.28;;
83145;SDS011;73037;51.110;4.706;2024-03-25T11:26:20;6.28;;;2.40;;
83145;SDS011;73037;51.110;4.706;2024-03-25T11:28:53;6.10;;;2.20;;
83145;SDS011;73037;51.110;4.706;2024-03-25T11:31:22;3.88;;;2.05;;
83145;SDS011;73037;51.110;4.706;2024-03-25T11:33:50;6.65;;;2.40;;
83145;SDS011;73037;51.110;4.706;2024-03-25T11:36:16;5.53;;;2.28;;
83145;SDS011;73037;51.110;4.706;2024-03-25T11:38:57;6.93;;;2.20;;
83145;SDS011;73037;51.110;4.706;2024-03-25T11:41:29;7.22;;;2.50;;
83145;SDS011;73037;51.110;4.706;2024-03-25T11:43:57;5.38;;;2.10;;
83145;SDS011;73037;51.110;4.706;2024-03-25T11:46:26;5.55;;;2.60;;
83145;SDS011;73037;51.110;4.706;2024-03-25T11:48:54;7.20;;;2.70;;
83145;SDS011;73037;51.110;4.706;2024-03-25T11:51:20;4.85;;;2.90;;
83145;SDS011;73037;51.110;4.706;2024-03-25T11:53:46;6.05;;;2.80;;
83145;SDS011;73037;51.110;4.706;2024-03-25T11:56:11;6.30;;;2.63;;
83145;SDS011;73037;51.110;4.706;2024-03-25T11:58:38;5.57;;;2.85;;
83145;SDS011;73037;51.110;4.706;2024-03-25T12:01:04;4.55;;;2.45;;
83145;SDS011;73037;51.110;4.706;2024-03-25T12:03:30;5.90;;;2.60;;
83145;SDS011;73037;51.110;4.706;2024-03-25T12:05:56;7.20;;;2.83;;
83145;SDS011;73037;51.110;4.706;2024-03-25T12:08:22;5.88;;;2.47;;
83145;SDS011;73037;51.110;4.706;2024-03-25T12:10:51;4.53;;;2.35;;
83145;SDS011;73037;51.110;4.706;2024-03-25T12:13:35;4.65;;;2.20;;
83145;SDS011;73037;51.110;4.706;2024-03-25T12:16:05;4.45;;;2.03;;
83145;SDS011;73037;51.110;4.706;2024-03-25T12:18:33;4.45;;;2.10;;
83145;SDS011;73037;51.110;4.706;2024-03-25T12:21:04;5.72;;;3.13;;
83145;SDS011;73037;51.110;4.706;2024-03-25T12:23:30;5.00;;;2.20;;
83145;SDS011;73037;51.110;4.706;2024-03-25T12:25:58;6.35;;;2.30;;
83145;SDS011;73037;51.110;4.706;2024-03-25T12:28:25;6.45;;;2.13;;
83145;SDS011;73037;51.110;4.706;2024-03-25T12:30:54;3.65;;;2.08;;
83145;SDS011;73037;51.110;4.706;2024-03-25T12:33:23;5.90;;;1.90;;
83145;SDS011;73037;51.110;4.706;2024-03-25T12:35:49;3.25;;;2.28;;
83145;SDS011;73037;51.110;4.706;2024-03-25T12:40:47;6.43;;;2.42;;
83145;SDS011;73037;51.110;4.706;2024-03-25T12:43:16;3.25;;;1.92;;
83145;SDS011;73037;51.110;4.706;2024-03-25T12:45:42;4.20;;;1.92;;
83145;SDS011;73037;51.110;4.706;2024-03-25T12:48:08;4.45;;;1.83;;
83145;SDS011;73037;51.110;4.706;2024-03-25T12:50:34;3.50;;;1.80;;
83145;SDS011;73037;51.110;4.706;2024-03-25T12:53:00;3.90;;;1.75;;
83145;SDS011;73037;51.110;4.706;2024-03-25T12:55:26;8.10;;;2.30;;
83145;SDS011;73037;51.110;4.706;2024-03-25T12:57:52;2.92;;;1.60;;
83145;SDS011;73037;51.110;4.706;2024-03-25T13:00:17;6.57;;;1.92;;
83145;SDS011;73037;51.110;4.706;2024-03-25T13:02:43;4.25;;;1.95;;
83145;SDS011;73037;51.110;4.706;2024-03-25T13:05:09;3.55;;;2.00;;
83145;SDS011;73037;51.110;4.706;2024-03-25T13:07:35;6.35;;;2.10;;
83145;SDS011;73037;51.110;4.706;2024-03-25T13:10:01;5.95;;;2.20;;
83145;SDS011;73037;51.110;4.706;2024-03-25T13:12:28;5.20;;;1.95;;
83145;SDS011;73037;51.110;4.706;2024-03-25T13:14:54;3.58;;;1.70;;
83145;SDS011;73037;51.110;4.706;2024-03-25T13:17:19;5.28;;;2.00;;
83145;SDS011;73037;51.110;4.706;2024-03-25T13:19:45;4.75;;;2.00;;
83145;SDS011;73037;51.110;4.706;2024-03-25T13:22:10;4.55;;;1.65;;
83145;SDS011;73037;51.110;4.706;2024-03-25T13:24:36;3.60;;;1.90;;
83145;SDS011;73037;51.110;4.706;2024-03-25T13:27:02;3.97;;;2.00;;
83145;SDS011;73037;51.110;4.706;2024-03-25T13:29:28;3.03;;;1.48;;
83145;SDS011;73037;51.110;4.706;2024-03-25T13:31:54;4.18;;;1.73;;
83145;SDS011;73037;51.110;4.706;2024-03-25T13:34:19;4.35;;;1.75;;
83145;SDS011;73037;51.110;4.706;2024-03-25T13:36:45;2.00;;;1.48;;
83145;SDS011;73037;51.110;4.706;2024-03-25T13:39:10;3.10;;;1.60;;
83145;SDS011;73037;51.110;4.706;2024-03-25T13:41:37;2.35;;;1.48;;
83145;SDS011;73037;51.110;4.706;2024-03-25T13:44:03;3.45;;;1.50;;
83145;SDS011;73037;51.110;4.706;2024-03-25T13:46:29;3.13;;;1.73;;
83145;SDS011;73037;51.110;4.706;2024-03-25T13:48:54;4.28;;;1.70;;
83145;SDS011;73037;51.110;4.706;2024-03-25T13:51:20;2.05;;;1.55;;
83145;SDS011;73037;51.110;4.706;2024-03-25T13:53:45;4.43;;;2.45;;
83145;SDS011;73037;51.110;4.706;2024-03-25T13:56:11;6.05;;;1.90;;
83145;SDS011;73037;51.110;4.706;2024-03-25T13:58:37;4.18;;;1.73;;
83145;SDS011;73037;51.110;4.706;2024-03-25T14:01:02;3.40;;;1.52;;
83145;SDS011;73037;51.110;4.706;2024-03-25T14:03:28;6.68;;;1.80;;
83145;SDS011;73037;51.110;4.706;2024-03-25T14:05:54;3.90;;;1.55;;
83145;SDS011;73037;51.110;4.706;2024-03-25T14:08:19;3.80;;;1.30;;
83145;SDS011;73037;51.110;4.706;2024-03-25T14:10:45;2.42;;;1.63;;
83145;SDS011;73037;51.110;4.706;2024-03-25T14:13:11;4.40;;;2.03;;
83145;SDS011;73037;51.110;4.706;2024-03-25T14:15:36;3.67;;;2.00;;
83145;SDS011;73037;51.110;4.706;2024-03-25T14:18:02;2.92;;;1.75;;
83145;SDS011;73037;51.110;4.706;2024-03-25T14:20:28;3.10;;;1.65;;
83145;SDS011;73037;51.110;4.706;2024-03-25T14:22:54;3.33;;;1.33;;
83145;SDS011;73037;51.110;4.706;2024-03-25T14:25:19;2.15;;;1.58;;
83145;SDS011;73037;51.110;4.706;2024-03-25T14:27:45;4.35;;;1.40;;
83145;SDS011;73037;51.110;4.706;2024-03-25T14:30:11;4.43;;;1.70;;
83145;SDS011;73037;51.110;4.706;2024-03-25T14:32:40;2.80;;;1.90;;
83145;SDS011;73037;51.110;4.706;2024-03-25T14:35:05;6.05;;;1.65;;
83145;SDS011;73037;51.110;4.706;2024-03-25T14:37:34;5.15;;;1.67;;
83145;SDS011;73037;51.110;4.706;2024-03-25T14:40:00;3.53;;;1.58;;
83145;SDS011;73037;51.110;4.706;2024-03-25T14:42:25;2.08;;;1.50;;
83145;SDS011;73037;51.110;4.706;2024-03-25T14:44:51;3.60;;;1.35;;
83145;SDS011;73037;51.110;4.706;2024-03-25T14:47:17;3.50;;;1.50;;
83145;SDS011;73037;51.110;4.706;2024-03-25T14:49:42;3.75;;;1.40;;
83145;SDS011;73037;51.110;4.706;2024-03-25T14:52:08;2.00;;;1.30;;
83145;SDS011;73037;51.110;4.706;2024-03-25T14:54:34;2.50;;;1.45;;
83145;SDS011;73037;51.110;4.706;2024-03-25T14:57:00;2.60;;;1.73;;
83145;SDS011;73037;51.110;4.706;2024-03-25T14:59:29;3.95;;;1.75;;